sensor_id;sensor_type;location;lat;lon;timestamp;P1;durP1;ratioP1;P2;durP2;ratioP2
30693;SDS011;17446;48.022;-1.740;2022-07-10T00:00:13;4.10;;;1.58;;
30693;SDS011;17446;48.022;-1.740;2022-07-10T00:02:40;2.35;;;1.77;;
30693;SDS011;17446;48.022;-1.740;2022-07-10T00:05:07;1.65;;;1.33;;
30693;SDS011;17446;48.022;-1.740;2022-07-10T00:07:34;1.40;;;1.30;;
30693;SDS011;17446;48.022;-1.740;2022-07-10T00:10:00;4.38;;;1.42;;
30693;SDS011;17446;48.022;-1.740;2022-07-10T00:12:26;1.85;;;1.40;;
30693;SDS011;17446;48.022;-1.740;2022-07-10T00:14:52;2.88;;;1.80;;
30693;SDS011;17446;48.022;-1.740;2022-07-10T00:17:17;2.08;;;1.42;;
30693;SDS011;17446;48.022;-1.740;2022-07-10T00:19:43;3.20;;;1.27;;
30693;SDS011;17446;48.022;-1.740;2022-07-10T00:22:09;1.88;;;1.40;;
30693;SDS011;17446;48.022;-1.740;2022-07-10T00:24:34;2.75;;;1.30;;
30693;SDS011;17446;48.022;-1.740;2022-07-10T00:27:00;2.05;;;1.42;;
30693;SDS011;17446;48.022;-1.740;2022-07-10T00:29:26;1.42;;;1.30;;
30693;SDS011;17446;48.022;-1.740;2022-07-10T00:31:51;4.28;;;1.60;;
30693;SDS011;17446;48.022;-1.740;2022-07-10T00:34:17;1.45;;;1.23;;
30693;SDS011;17446;48.022;-1.740;2022-07-10T00:36:43;4.35;;;1.77;;
30693;SDS011;17446;48.022;-1.740;2022-07-10T00:39:09;2.42;;;1.63;;
30693;SDS011;17446;48.022;-1.740;2022-07-10T00:41:35;2.85;;;1.42;;
30693;SDS011;17446;48.022;-1.740;2022-07-10T00:44:02;1.55;;;1.45;;
30693;SDS011;17446;48.022;-1.740;2022-07-10T00:46:29;1.67;;;1.40;;
30693;SDS011;17446;48.022;-1.740;2022-07-10T00:48:55;3.42;;;1.40;;
30693;SDS011;17446;48.022;-1.740;2022-07-10T00:51:22;2.53;;;1.40;;
30693;SDS011;17446;48.022;-1.740;2022-07-10T00:53:50;2.80;;;1.50;;
30693;SDS011;17446;48.022;-1.740;2022-07-10T00:56:18;2.10;;;1.40;;
30693;SDS011;17446;48.022;-1.740;2022-07-10T00:58:46;8.50;;;1.38;;
30693;SDS011;17446;48.022;-1.740;2022-07-10T01:01:13;2.03;;;1.60;;
30693;SDS011;17446;48.022;-1.740;2022-07-10T01:03:40;2.72;;;1.40;;
30693;SDS011;17446;48.022;-1.740;2022-07-10T01:06:05;4.20;;;1.83;;
30693;SDS011;17446;48.022;-1.740;2022-07-10T01:08:31;1.58;;;1.40;;
30693;SDS011;17446;48.022;-1.740;2022-07-10T01:10:58;1.80;;;1.58;;
30693;SDS011;17446;48.022;-1.740;2022-07-10T01:13:24;2.10;;;1.80;;
30693;SDS011;17446;48.022;-1.740;2022-07-10T01:15:50;3.97;;;1.95;;
30693;SDS011;17446;48.022;-1.740;2022-07-10T01:18:17;2.60;;;2.10;;
30693;SDS011;17446;48.022;-1.740;2022-07-10T01:20:44;4.95;;;1.90;;
30693;SDS011;17446;48.022;-1.740;2022-07-10T01:23:10;2.88;;;1.50;;
30693;SDS011;17446;48.022;-1.740;2022-07-10T01:25:35;2.30;;;1.90;;
30693;SDS011;17446;48.022;-1.740;2022-07-10T01:28:01;2.47;;;1.95;;
30693;SDS011;17446;48.022;-1.740;2022-07-10T01:30:26;4.50;;;1.88;;
30693;SDS011;17446;48.022;-1.740;2022-07-10T01:32:52;1.88;;;1.60;;
30693;SDS011;17446;48.022;-1.740;2022-07-10T01:35:18;3.25;;;1.92;;
30693;SDS011;17446;48.022;-1.740;2022-07-10T01:37:44;2.30;;;1.95;;
30693;SDS011;17446;48.022;-1.740;2022-07-10T01:40:10;3.67;;;1.65;;
30693;SDS011;17446;48.022;-1.740;2022-07-10T01:42:37;2.90;;;2.00;;
30693;SDS011;17446;48.022;-1.740;2022-07-10T01:45:03;3.92;;;1.88;;
30693;SDS011;17446;48.022;-1.740;2022-07-10T01:47:33;2.10;;;1.63;;
30693;SDS011;17446;48.022;-1.740;2022-07-10T01:49:59;2.05;;;1.85;;
30693;SDS011;17446;48.022;-1.740;2022-07-10T01:52:24;3.28;;;1.70;;
30693;SDS011;17446;48.022;-1.740;2022-07-10T01:54:50;3.60;;;1.83;;
30693;SDS011;17446;48.022;-1.740;2022-07-10T01:57:15;2.25;;;2.00;;
30693;SDS011;17446;48.022;-1.740;2022-07-10T01:59:41;3.30;;;2.10;;
30693;SDS011;17446;48.022;-1.740;2022-07-10T02:02:07;2.70;;;2.20;;
30693;SDS011;17446;48.022;-1.740;2022-07-10T02:04:33;3.15;;;1.77;;
30693;SDS011;17446;48.022;-1.740;2022-07-10T02:09:41;2.63;;;1.97;;
30693;SDS011;17446;48.022;-1.740;2022-07-10T02:12:08;4.50;;;1.92;;
30693;SDS011;17446;48.022;-1.740;2022-07-10T02:14:35;9.88;;;2.50;;
30693;SDS011;17446;48.022;-1.740;2022-07-10T02:17:02;2.83;;;1.90;;
30693;SDS011;17446;48.022;-1.740;2022-07-10T02:19:31;5.07;;;1.90;;
30693;SDS011;17446;48.022;-1.740;2022-07-10T02:21:58;2.05;;;1.60;;
30693;SDS011;17446;48.022;-1.740;2022-07-10T02:24:24;2.17;;;1.50;;
30693;SDS011;17446;48.022;-1.740;2022-07-10T02:26:50;2.47;;;2.00;;
30693;SDS011;17446;48.022;-1.740;2022-07-10T02:29:15;3.65;;;2.25;;
30693;SDS011;17446;48.022;-1.740;2022-07-10T02:31:42;3.88;;;2.20;;
30693;SDS011;17446;48.022;-1.740;2022-07-10T02:34:08;3.22;;;1.60;;
30693;SDS011;17446;48.022;-1.740;2022-07-10T02:36:35;2.35;;;1.70;;
30693;SDS011;17446;48.022;-1.740;2022-07-10T02:39:03;3.55;;;1.83;;
30693;SDS011;17446;48.022;-1.740;2022-07-10T02:41:29;3.03;;;1.95;;
30693;SDS011;17446;48.022;-1.740;2022-07-10T02:43:54;2.92;;;2.25;;
30693;SDS011;17446;48.022;-1.740;2022-07-10T02:46:20;3.75;;;2.00;;
30693;SDS011;17446;48.022;-1.740;2022-07-10T02:48:45;6.72;;;2.45;;
30693;SDS011;17446;48.022;-1.740;2022-07-10T02:51:11;3.78;;;2.33;;
30693;SDS011;17446;48.022;-1.740;2022-07-10T02:53:37;3.88;;;2.17;;
30693;SDS011;17446;48.022;-1.740;2022-07-10T02:56:03;6.20;;;2.38;;
30693;SDS011;17446;48.022;-1.740;2022-07-10T02:58:28;2.95;;;2.20;;
30693;SDS011;17446;48.022;-1.740;2022-07-10T03:00:54;5.20;;;2.42;;
30693;SDS011;17446;48.022;-1.740;2022-07-10T03:03:20;5.35;;;2.63;;
30693;SDS011;17446;48.022;-1.740;2022-07-10T03:05:46;4.85;;;2.22;;
30693;SDS011;17446;48.022;-1.740;2022-07-10T03:08:12;2.38;;;2.17;;
30693;SDS011;17446;48.022;-1.740;2022-07-10T03:10:37;3.13;;;2.20;;
30693;SDS011;17446;48.022;-1.740;2022-07-10T03:13:03;3.63;;;2.47;;
30693;SDS011;17446;48.022;-1.740;2022-07-10T03:15:29;4.05;;;2.20;;
30693;SDS011;17446;48.022;-1.740;2022-07-10T03:17:55;4.40;;;2.85;;
30693;SDS011;17446;48.022;-1.740;2022-07-10T03:20:21;3.63;;;2.22;;
30693;SDS011;17446;48.022;-1.740;2022-07-10T03:22:46;3.35;;;2.22;;
30693;SDS011;17446;48.022;-1.740;2022-07-10T03:25:12;4.97;;;2.28;;
30693;SDS011;17446;48.022;-1.740;2022-07-10T03:27:38;3.40;;;2.30;;
30693;SDS011;17446;48.022;-1.740;2022-07-10T03:30:04;3.92;;;2.30;;
30693;SDS011;17446;48.022;-1.740;2022-07-10T03:32:30;3.85;;;2.60;;
30693;SDS011;17446;48.022;-1.740;2022-07-10T03:34:57;2.70;;;2.42;;
30693;SDS011;17446;48.022;-1.740;2022-07-10T03:37:22;3.45;;;2.60;;
30693;SDS011;17446;48.022;-1.740;2022-07-10T03:39:48;3.45;;;2.72;;
30693;SDS011;17446;48.022;-1.740;2022-07-10T03:42:13;5.72;;;2.65;;
30693;SDS011;17446;48.022;-1.740;2022-07-10T03:44:39;4.05;;;2.40;;
30693;SDS011;17446;48.022;-1.740;2022-07-10T03:47:05;5.38;;;2.47;;
30693;SDS011;17446;48.022;-1.740;2022-07-10T03:49:31;3.28;;;2.42;;
30693;SDS011;17446;48.022;-1.740;2022-07-10T03:52:00;3.58;;;2.65;;
30693;SDS011;17446;48.022;-1.740;2022-07-10T03:54:26;5.78;;;2.63;;
30693;SDS011;17446;48.022;-1.740;2022-07-10T03:56:52;3.53;;;2.78;;
30693;SDS011;17446;48.022;-1.740;2022-07-10T03:59:36;7.05;;;3.28;;
30693;SDS011;17446;48.022;-1.740;2022-07-10T04:02:02;3.70;;;2.55;;
30693;SDS011;17446;48.022;-1.740;2022-07-10T04:04:28;8.48;;;2.78;;
30693;SDS011;17446;48.022;-1.740;2022-07-10T04:06:53;3.50;;;2.72;;
30693;SDS011;17446;48.022;-1.740;2022-07-10T04:09:19;4.95;;;2.60;;
30693;SDS011;17446;48.022;-1.740;2022-07-10T04:11:45;5.10;;;2.78;;
30693;SDS011;17446;48.022;-1.740;2022-07-10T04:14:10;7.00;;;3.15;;
30693;SDS011;17446;48.022;-1.740;2022-07-10T04:16:36;5.72;;;2.60;;
30693;SDS011;17446;48.022;-1.740;2022-07-10T04:19:02;6.82;;;3.10;;
30693;SDS011;17446;48.022;-1.740;2022-07-10T04:21:27;4.78;;;2.83;;
30693;SDS011;17446;48.022;-1.740;2022-07-10T04:23:53;3.95;;;2.45;;
30693;SDS011;17446;48.022;-1.740;2022-07-10T04:26:19;5.22;;;2.95;;
30693;SDS011;17446;48.022;-1.740;2022-07-10T04:28:44;5.57;;;3.03;;
30693;SDS011;17446;48.022;-1.740;2022-07-10T04:31:10;3.30;;;2.40;;
30693;SDS011;17446;48.022;-1.740;2022-07-10T04:33:36;2.53;;;2.03;;
30693;SDS011;17446;48.022;-1.740;2022-07-10T04:36:02;5.18;;;1.92;;
30693;SDS011;17446;48.022;-1.740;2022-07-10T04:38:28;4.22;;;2.17;;
30693;SDS011;17446;48.022;-1.740;2022-07-10T04:40:53;2.95;;;2.30;;
30693;SDS011;17446;48.022;-1.740;2022-07-10T04:43:19;1.95;;;1.60;;
30693;SDS011;17446;48.022;-1.740;2022-07-10T04:45:45;6.13;;;2.20;;
30693;SDS011;17446;48.022;-1.740;2022-07-10T04:48:10;3.13;;;2.00;;
30693;SDS011;17446;48.022;-1.740;2022-07-10T04:50:37;4.45;;;1.88;;
30693;SDS011;17446;48.022;-1.740;2022-07-10T04:53:02;3.13;;;2.15;;
30693;SDS011;17446;48.022;-1.740;2022-07-10T04:55:28;5.13;;;2.90;;
30693;SDS011;17446;48.022;-1.740;2022-07-10T04:57:53;4.78;;;2.70;;
30693;SDS011;17446;48.022;-1.740;2022-07-10T05:00:19;4.55;;;2.40;;
30693;SDS011;17446;48.022;-1.740;2022-07-10T05:02:45;3.17;;;2.40;;
30693;SDS011;17446;48.022;-1.740;2022-07-10T05:05:10;3.55;;;2.45;;
30693;SDS011;17446;48.022;-1.740;2022-07-10T05:07:36;4.75;;;2.70;;
30693;SDS011;17446;48.022;-1.740;2022-07-10T05:10:01;6.70;;;2.90;;
30693;SDS011;17446;48.022;-1.740;2022-07-10T05:12:27;3.85;;;2.63;;
30693;SDS011;17446;48.022;-1.740;2022-07-10T05:14:53;4.43;;;2.75;;
30693;SDS011;17446;48.022;-1.740;2022-07-10T05:17:18;3.70;;;2.35;;
30693;SDS011;17446;48.022;-1.740;2022-07-10T05:19:44;2.67;;;2.25;;
30693;SDS011;17446;48.022;-1.740;2022-07-10T05:22:10;3.40;;;2.22;;
30693;SDS011;17446;48.022;-1.740;2022-07-10T05:24:36;3.70;;;2.33;;
30693;SDS011;17446;48.022;-1.740;2022-07-10T05:27:01;5.53;;;2.30;;
30693;SDS011;17446;48.022;-1.740;2022-07-10T05:29:27;3.90;;;2.17;;
30693;SDS011;17446;48.022;-1.740;2022-07-10T05:31:53;3.17;;;2.58;;
30693;SDS011;17446;48.022;-1.740;2022-07-10T05:34:19;3.35;;;1.88;;
30693;SDS011;17446;48.022;-1.740;2022-07-10T05:36:44;5.75;;;2.10;;
30693;SDS011;17446;48.022;-1.740;2022-07-10T05:39:10;2.88;;;1.83;;
30693;SDS011;17446;48.022;-1.740;2022-07-10T05:41:36;2.95;;;2.33;;
30693;SDS011;17446;48.022;-1.740;2022-07-10T05:44:02;5.13;;;2.33;;
30693;SDS011;17446;48.022;-1.740;2022-07-10T05:46:27;2.03;;;1.60;;
30693;SDS011;17446;48.022;-1.740;2022-07-10T05:48:53;2.72;;;1.90;;
30693;SDS011;17446;48.022;-1.740;2022-07-10T05:51:19;5.30;;;2.00;;
30693;SDS011;17446;48.022;-1.740;2022-07-10T05:53:45;2.92;;;1.52;;
30693;SDS011;17446;48.022;-1.740;2022-07-10T05:56:10;2.78;;;1.45;;
30693;SDS011;17446;48.022;-1.740;2022-07-10T05:58:36;3.85;;;1.30;;
30693;SDS011;17446;48.022;-1.740;2022-07-10T06:01:02;2.17;;;1.35;;
30693;SDS011;17446;48.022;-1.740;2022-07-10T06:03:27;1.40;;;1.30;;
30693;SDS011;17446;48.022;-1.740;2022-07-10T06:05:53;1.10;;;0.90;;
30693;SDS011;17446;48.022;-1.740;2022-07-10T06:08:19;1.40;;;1.30;;
30693;SDS011;17446;48.022;-1.740;2022-07-10T06:10:45;1.35;;;1.25;;
30693;SDS011;17446;48.022;-1.740;2022-07-10T06:13:11;2.75;;;1.10;;
30693;SDS011;17446;48.022;-1.740;2022-07-10T06:15:37;5.80;;;1.33;;
30693;SDS011;17446;48.022;-1.740;2022-07-10T06:18:02;4.72;;;1.55;;
30693;SDS011;17446;48.022;-1.740;2022-07-10T06:20:28;2.50;;;1.02;;
30693;SDS011;17446;48.022;-1.740;2022-07-10T06:22:54;4.82;;;1.02;;
30693;SDS011;17446;48.022;-1.740;2022-07-10T06:25:20;2.13;;;1.10;;
30693;SDS011;17446;48.022;-1.740;2022-07-10T06:27:45;3.53;;;1.15;;
30693;SDS011;17446;48.022;-1.740;2022-07-10T06:30:11;1.30;;;1.02;;
30693;SDS011;17446;48.022;-1.740;2022-07-10T06:32:38;2.13;;;1.00;;
30693;SDS011;17446;48.022;-1.740;2022-07-10T06:35:04;1.63;;;1.20;;
30693;SDS011;17446;48.022;-1.740;2022-07-10T06:37:32;3.63;;;1.52;;
30693;SDS011;17446;48.022;-1.740;2022-07-10T06:39:57;1.40;;;0.98;;
30693;SDS011;17446;48.022;-1.740;2022-07-10T06:42:23;2.00;;;1.15;;
30693;SDS011;17446;48.022;-1.740;2022-07-10T06:44:49;2.80;;;1.20;;
30693;SDS011;17446;48.022;-1.740;2022-07-10T06:47:15;3.38;;;1.10;;
30693;SDS011;17446;48.022;-1.740;2022-07-10T06:50:02;1.52;;;0.95;;
30693;SDS011;17446;48.022;-1.740;2022-07-10T06:52:30;4.82;;;1.20;;
30693;SDS011;17446;48.022;-1.740;2022-07-10T06:54:58;2.10;;;1.20;;
30693;SDS011;17446;48.022;-1.740;2022-07-10T06:57:24;2.03;;;1.08;;
30693;SDS011;17446;48.022;-1.740;2022-07-10T06:59:50;2.47;;;0.90;;
30693;SDS011;17446;48.022;-1.740;2022-07-10T07:02:16;1.98;;;0.85;;
30693;SDS011;17446;48.022;-1.740;2022-07-10T07:04:42;2.28;;;1.20;;
30693;SDS011;17446;48.022;-1.740;2022-07-10T07:07:09;1.27;;;1.13;;
30693;SDS011;17446;48.022;-1.740;2022-07-10T07:09:35;2.38;;;1.10;;
30693;SDS011;17446;48.022;-1.740;2022-07-10T07:12:01;1.50;;;0.90;;
30693;SDS011;17446;48.022;-1.740;2022-07-10T07:14:26;10.02;;;1.55;;
30693;SDS011;17446;48.022;-1.740;2022-07-10T07:16:52;1.63;;;1.52;;
30693;SDS011;17446;48.022;-1.740;2022-07-10T07:19:44;2.47;;;1.20;;
30693;SDS011;17446;48.022;-1.740;2022-07-10T07:22:28;3.88;;;1.10;;
30693;SDS011;17446;48.022;-1.740;2022-07-10T07:25:12;4.90;;;1.53;;
30693;SDS011;17446;48.022;-1.740;2022-07-10T07:27:38;3.55;;;1.13;;
30693;SDS011;17446;48.022;-1.740;2022-07-10T07:30:04;1.65;;;1.15;;
30693;SDS011;17446;48.022;-1.740;2022-07-10T07:32:31;2.13;;;1.23;;
30693;SDS011;17446;48.022;-1.740;2022-07-10T07:34:57;3.10;;;1.10;;
30693;SDS011;17446;48.022;-1.740;2022-07-10T07:37:23;5.72;;;1.48;;
30693;SDS011;17446;48.022;-1.740;2022-07-10T07:39:59;3.65;;;1.10;;
30693;SDS011;17446;48.022;-1.740;2022-07-10T07:42:24;3.95;;;1.08;;
30693;SDS011;17446;48.022;-1.740;2022-07-10T07:44:50;1.88;;;0.98;;
30693;SDS011;17446;48.022;-1.740;2022-07-10T07:47:15;3.92;;;1.55;;
30693;SDS011;17446;48.022;-1.740;2022-07-10T07:49:41;3.05;;;1.25;;
30693;SDS011;17446;48.022;-1.740;2022-07-10T07:52:07;3.95;;;1.40;;
30693;SDS011;17446;48.022;-1.740;2022-07-10T07:54:32;4.07;;;1.10;;
30693;SDS011;17446;48.022;-1.740;2022-07-10T07:56:58;1.33;;;0.90;;
30693;SDS011;17446;48.022;-1.740;2022-07-10T07:59:23;2.28;;;1.05;;
30693;SDS011;17446;48.022;-1.740;2022-07-10T08:01:49;4.85;;;1.30;;
30693;SDS011;17446;48.022;-1.740;2022-07-10T08:04:14;3.75;;;1.30;;
30693;SDS011;17446;48.022;-1.740;2022-07-10T08:06:40;2.40;;;1.23;;
30693;SDS011;17446;48.022;-1.740;2022-07-10T08:09:06;3.03;;;0.85;;
30693;SDS011;17446;48.022;-1.740;2022-07-10T08:11:31;3.83;;;1.35;;
30693;SDS011;17446;48.022;-1.740;2022-07-10T08:13:57;8.15;;;1.42;;
30693;SDS011;17446;48.022;-1.740;2022-07-10T08:16:23;1.77;;;0.98;;
30693;SDS011;17446;48.022;-1.740;2022-07-10T08:18:48;6.97;;;1.13;;
30693;SDS011;17446;48.022;-1.740;2022-07-10T08:21:15;5.30;;;1.40;;
30693;SDS011;17446;48.022;-1.740;2022-07-10T08:23:41;3.15;;;1.42;;
30693;SDS011;17446;48.022;-1.740;2022-07-10T08:26:06;5.53;;;1.45;;
30693;SDS011;17446;48.022;-1.740;2022-07-10T08:28:32;4.65;;;1.10;;
30693;SDS011;17446;48.022;-1.740;2022-07-10T08:30:57;2.78;;;1.23;;
30693;SDS011;17446;48.022;-1.740;2022-07-10T08:33:23;3.67;;;1.20;;
30693;SDS011;17446;48.022;-1.740;2022-07-10T08:35:49;1.95;;;1.00;;
30693;SDS011;17446;48.022;-1.740;2022-07-10T08:38:14;3.70;;;1.00;;
30693;SDS011;17446;48.022;-1.740;2022-07-10T08:40:40;3.95;;;1.10;;
30693;SDS011;17446;48.022;-1.740;2022-07-10T08:43:07;3.35;;;1.05;;
30693;SDS011;17446;48.022;-1.740;2022-07-10T08:45:33;2.80;;;0.80;;
30693;SDS011;17446;48.022;-1.740;2022-07-10T08:48:02;3.45;;;1.20;;
30693;SDS011;17446;48.022;-1.740;2022-07-10T08:50:32;4.35;;;0.85;;
30693;SDS011;17446;48.022;-1.740;2022-07-10T08:53:07;2.00;;;1.20;;
30693;SDS011;17446;48.022;-1.740;2022-07-10T08:55:37;1.52;;;0.95;;
30693;SDS011;17446;48.022;-1.740;2022-07-10T08:58:03;2.65;;;0.80;;
30693;SDS011;17446;48.022;-1.740;2022-07-10T09:00:32;2.20;;;0.80;;
30693;SDS011;17446;48.022;-1.740;2022-07-10T09:02:57;2.60;;;1.10;;
30693;SDS011;17446;48.022;-1.740;2022-07-10T09:05:23;4.18;;;1.15;;
30693;SDS011;17446;48.022;-1.740;2022-07-10T09:07:51;4.00;;;1.00;;
30693;SDS011;17446;48.022;-1.740;2022-07-10T09:10:18;1.67;;;1.10;;
30693;SDS011;17446;48.022;-1.740;2022-07-10T09:13:01;4.35;;;1.20;;
30693;SDS011;17446;48.022;-1.740;2022-07-10T09:15:30;3.50;;;0.90;;
30693;SDS011;17446;48.022;-1.740;2022-07-10T09:18:00;3.17;;;0.88;;
30693;SDS011;17446;48.022;-1.740;2022-07-10T09:20:34;1.42;;;0.95;;
30693;SDS011;17446;48.022;-1.740;2022-07-10T09:23:20;1.27;;;0.70;;
30693;SDS011;17446;48.022;-1.740;2022-07-10T09:25:48;0.95;;;0.63;;
30693;SDS011;17446;48.022;-1.740;2022-07-10T09:28:19;5.72;;;1.20;;
30693;SDS011;17446;48.022;-1.740;2022-07-10T09:30:46;4.10;;;1.02;;
30693;SDS011;17446;48.022;-1.740;2022-07-10T09:46:35;1.20;;;0.70;;
30693;SDS011;17446;48.022;-1.740;2022-07-10T09:49:03;3.15;;;0.98;;
30693;SDS011;17446;48.022;-1.740;2022-07-10T09:51:32;2.58;;;1.38;;
30693;SDS011;17446;48.022;-1.740;2022-07-10T09:54:05;3.88;;;1.13;;
30693;SDS011;17446;48.022;-1.740;2022-07-10T09:56:42;2.63;;;0.88;;
30693;SDS011;17446;48.022;-1.740;2022-07-10T09:59:15;3.65;;;1.30;;
30693;SDS011;17446;48.022;-1.740;2022-07-10T10:01:48;4.75;;;1.15;;
30693;SDS011;17446;48.022;-1.740;2022-07-10T10:04:17;1.35;;;0.80;;
30693;SDS011;17446;48.022;-1.740;2022-07-10T10:06:52;2.55;;;1.15;;
30693;SDS011;17446;48.022;-1.740;2022-07-10T10:11:49;1.17;;;1.00;;
30693;SDS011;17446;48.022;-1.740;2022-07-10T10:14:28;3.60;;;1.00;;
30693;SDS011;17446;48.022;-1.740;2022-07-10T10:16:55;2.65;;;1.10;;
30693;SDS011;17446;48.022;-1.740;2022-07-10T10:19:23;1.83;;;0.80;;
30693;SDS011;17446;48.022;-1.740;2022-07-10T10:22:07;7.15;;;1.40;;
30693;SDS011;17446;48.022;-1.740;2022-07-10T10:24:34;1.98;;;0.95;;
30693;SDS011;17446;48.022;-1.740;2022-07-10T10:27:01;1.45;;;0.85;;
30693;SDS011;17446;48.022;-1.740;2022-07-10T10:29:29;1.70;;;1.20;;
30693;SDS011;17446;48.022;-1.740;2022-07-10T10:31:55;3.22;;;1.02;;
30693;SDS011;17446;48.022;-1.740;2022-07-10T10:34:43;7.80;;;2.00;;
30693;SDS011;17446;48.022;-1.740;2022-07-10T10:39:55;2.05;;;1.00;;
30693;SDS011;17446;48.022;-1.740;2022-07-10T10:42:32;2.33;;;0.70;;
30693;SDS011;17446;48.022;-1.740;2022-07-10T10:48:06;2.78;;;0.95;;
30693;SDS011;17446;48.022;-1.740;2022-07-10T10:53:12;2.38;;;1.17;;
30693;SDS011;17446;48.022;-1.740;2022-07-10T10:58:43;1.13;;;1.02;;
30693;SDS011;17446;48.022;-1.740;2022-07-10T11:09:28;2.28;;;1.10;;
30693;SDS011;17446;48.022;-1.740;2022-07-10T11:14:40;1.65;;;1.00;;
30693;SDS011;17446;48.022;-1.740;2022-07-10T11:17:10;1.35;;;1.17;;
30693;SDS011;17446;48.022;-1.740;2022-07-10T11:19:36;1.85;;;1.40;;
30693;SDS011;17446;48.022;-1.740;2022-07-10T11:28:03;2.95;;;1.10;;
30693;SDS011;17446;48.022;-1.740;2022-07-10T11:30:26;1.10;;;1.00;;
30693;SDS011;17446;48.022;-1.740;2022-07-10T11:32:52;1.63;;;1.10;;
30693;SDS011;17446;48.022;-1.740;2022-07-10T11:35:18;1.40;;;1.10;;
30693;SDS011;17446;48.022;-1.740;2022-07-10T11:37:50;5.15;;;1.42;;
30693;SDS011;17446;48.022;-1.740;2022-07-10T11:40:17;2.25;;;1.40;;
30693;SDS011;17446;48.022;-1.740;2022-07-10T11:42:56;1.45;;;1.20;;
30693;SDS011;17446;48.022;-1.740;2022-07-10T11:45:28;2.38;;;1.30;;
30693;SDS011;17446;48.022;-1.740;2022-07-10T11:47:56;4.78;;;1.13;;
30693;SDS011;17446;48.022;-1.740;2022-07-10T11:50:23;3.60;;;1.42;;
30693;SDS011;17446;48.022;-1.740;2022-07-10T11:52:49;3.33;;;1.13;;
30693;SDS011;17446;48.022;-1.740;2022-07-10T11:55:16;2.22;;;1.08;;
30693;SDS011;17446;48.022;-1.740;2022-07-10T11:57:43;0.93;;;0.80;;
30693;SDS011;17446;48.022;-1.740;2022-07-10T12:00:23;12.98;;;1.55;;
30693;SDS011;17446;48.022;-1.740;2022-07-10T12:02:50;3.22;;;1.13;;
30693;SDS011;17446;48.022;-1.740;2022-07-10T12:05:29;3.60;;;1.15;;
30693;SDS011;17446;48.022;-1.740;2022-07-10T12:07:59;2.72;;;1.20;;
30693;SDS011;17446;48.022;-1.740;2022-07-10T12:10:28;1.98;;;1.23;;
30693;SDS011;17446;48.022;-1.740;2022-07-10T12:13:07;1.00;;;0.90;;
30693;SDS011;17446;48.022;-1.740;2022-07-10T12:15:35;6.20;;;1.23;;
30693;SDS011;17446;48.022;-1.740;2022-07-10T12:18:24;2.60;;;1.30;;
30693;SDS011;17446;48.022;-1.740;2022-07-10T12:20:49;1.88;;;1.20;;
30693;SDS011;17446;48.022;-1.740;2022-07-10T12:23:18;3.42;;;1.40;;
30693;SDS011;17446;48.022;-1.740;2022-07-10T12:25:45;1.35;;;1.20;;
30693;SDS011;17446;48.022;-1.740;2022-07-10T12:28:14;1.38;;;0.98;;
30693;SDS011;17446;48.022;-1.740;2022-07-10T12:30:44;1.17;;;1.08;;
30693;SDS011;17446;48.022;-1.740;2022-07-10T12:35:50;1.30;;;1.20;;
30693;SDS011;17446;48.022;-1.740;2022-07-10T12:38:26;2.00;;;1.10;;
30693;SDS011;17446;48.022;-1.740;2022-07-10T12:43:31;3.03;;;1.48;;
30693;SDS011;17446;48.022;-1.740;2022-07-10T12:46:13;1.48;;;1.30;;
30693;SDS011;17446;48.022;-1.740;2022-07-10T12:48:43;1.55;;;1.10;;
30693;SDS011;17446;48.022;-1.740;2022-07-10T12:51:26;4.07;;;1.13;;
30693;SDS011;17446;48.022;-1.740;2022-07-10T12:53:53;2.83;;;1.63;;
30693;SDS011;17446;48.022;-1.740;2022-07-10T12:56:26;1.90;;;1.27;;
30693;SDS011;17446;48.022;-1.740;2022-07-10T12:58:52;2.45;;;1.20;;
30693;SDS011;17446;48.022;-1.740;2022-07-10T13:01:18;2.33;;;1.02;;
30693;SDS011;17446;48.022;-1.740;2022-07-10T13:03:43;3.13;;;1.00;;
30693;SDS011;17446;48.022;-1.740;2022-07-10T13:06:26;1.23;;;1.05;;
30693;SDS011;17446;48.022;-1.740;2022-07-10T13:08:53;1.25;;;1.15;;
30693;SDS011;17446;48.022;-1.740;2022-07-10T13:11:19;2.28;;;1.05;;
30693;SDS011;17446;48.022;-1.740;2022-07-10T13:13:44;1.88;;;1.38;;
30693;SDS011;17446;48.022;-1.740;2022-07-10T13:16:10;2.40;;;1.40;;
30693;SDS011;17446;48.022;-1.740;2022-07-10T13:18:36;3.53;;;1.10;;
30693;SDS011;17446;48.022;-1.740;2022-07-10T13:21:01;2.22;;;1.08;;
30693;SDS011;17446;48.022;-1.740;2022-07-10T13:23:29;2.97;;;2.08;;
30693;SDS011;17446;48.022;-1.740;2022-07-10T13:25:55;8.75;;;2.20;;
30693;SDS011;17446;48.022;-1.740;2022-07-10T13:28:21;0.80;;;0.80;;
30693;SDS011;17446;48.022;-1.740;2022-07-10T13:30:47;1.38;;;1.10;;
30693;SDS011;17446;48.022;-1.740;2022-07-10T13:33:13;4.22;;;1.00;;
30693;SDS011;17446;48.022;-1.740;2022-07-10T13:35:40;3.58;;;1.10;;
30693;SDS011;17446;48.022;-1.740;2022-07-10T13:38:06;1.38;;;0.98;;
30693;SDS011;17446;48.022;-1.740;2022-07-10T13:40:32;3.03;;;1.10;;
30693;SDS011;17446;48.022;-1.740;2022-07-10T13:42:59;2.08;;;1.40;;
30693;SDS011;17446;48.022;-1.740;2022-07-10T13:45:25;1.13;;;0.98;;
30693;SDS011;17446;48.022;-1.740;2022-07-10T13:47:58;6.60;;;1.13;;
30693;SDS011;17446;48.022;-1.740;2022-07-10T13:50:24;1.95;;;0.90;;
30693;SDS011;17446;48.022;-1.740;2022-07-10T13:52:50;1.50;;;1.30;;
30693;SDS011;17446;48.022;-1.740;2022-07-10T13:55:16;1.83;;;1.35;;
30693;SDS011;17446;48.022;-1.740;2022-07-10T13:57:42;3.60;;;1.55;;
30693;SDS011;17446;48.022;-1.740;2022-07-10T14:00:08;1.27;;;1.17;;
30693;SDS011;17446;48.022;-1.740;2022-07-10T14:02:34;2.97;;;0.98;;
30693;SDS011;17446;48.022;-1.740;2022-07-10T14:05:00;1.98;;;0.98;;
30693;SDS011;17446;48.022;-1.740;2022-07-10T14:07:26;1.00;;;0.90;;
30693;SDS011;17446;48.022;-1.740;2022-07-10T14:09:51;1.63;;;1.15;;
30693;SDS011;17446;48.022;-1.740;2022-07-10T14:12:17;0.90;;;0.73;;
30693;SDS011;17446;48.022;-1.740;2022-07-10T14:14:42;1.70;;;1.02;;
30693;SDS011;17446;48.022;-1.740;2022-07-10T14:17:08;1.00;;;0.70;;
30693;SDS011;17446;48.022;-1.740;2022-07-10T14:19:34;1.52;;;1.02;;
30693;SDS011;17446;48.022;-1.740;2022-07-10T14:21:59;1.25;;;1.08;;
30693;SDS011;17446;48.022;-1.740;2022-07-10T14:24:25;1.02;;;0.90;;
30693;SDS011;17446;48.022;-1.740;2022-07-10T14:26:51;1.65;;;1.02;;
30693;SDS011;17446;48.022;-1.740;2022-07-10T14:29:18;2.05;;;1.05;;
30693;SDS011;17446;48.022;-1.740;2022-07-10T14:31:44;3.05;;;1.17;;
30693;SDS011;17446;48.022;-1.740;2022-07-10T14:34:12;1.48;;;0.70;;
30693;SDS011;17446;48.022;-1.740;2022-07-10T14:36:38;0.80;;;0.80;;
30693;SDS011;17446;48.022;-1.740;2022-07-10T14:39:04;0.98;;;0.98;;
30693;SDS011;17446;48.022;-1.740;2022-07-10T14:41:29;2.88;;;1.17;;
30693;SDS011;17446;48.022;-1.740;2022-07-10T14:43:55;1.33;;;0.82;;
30693;SDS011;17446;48.022;-1.740;2022-07-10T14:46:21;1.33;;;0.80;;
30693;SDS011;17446;48.022;-1.740;2022-07-10T14:48:46;3.70;;;1.17;;
30693;SDS011;17446;48.022;-1.740;2022-07-10T14:51:12;1.83;;;1.15;;
30693;SDS011;17446;48.022;-1.740;2022-07-10T14:53:38;0.70;;;0.70;;
30693;SDS011;17446;48.022;-1.740;2022-07-10T14:56:06;2.60;;;0.98;;
30693;SDS011;17446;48.022;-1.740;2022-07-10T14:58:32;2.47;;;1.05;;
30693;SDS011;17446;48.022;-1.740;2022-07-10T15:00:58;1.42;;;0.82;;
30693;SDS011;17446;48.022;-1.740;2022-07-10T15:03:25;2.20;;;0.90;;
30693;SDS011;17446;48.022;-1.740;2022-07-10T15:05:51;1.00;;;0.88;;
30693;SDS011;17446;48.022;-1.740;2022-07-10T15:08:21;2.42;;;0.77;;
30693;SDS011;17446;48.022;-1.740;2022-07-10T15:10:48;1.40;;;1.00;;
30693;SDS011;17446;48.022;-1.740;2022-07-10T15:13:13;2.97;;;1.00;;
30693;SDS011;17446;48.022;-1.740;2022-07-10T15:15:39;1.48;;;0.80;;
30693;SDS011;17446;48.022;-1.740;2022-07-10T15:18:06;1.35;;;1.17;;
30693;SDS011;17446;48.022;-1.740;2022-07-10T15:20:31;3.25;;;0.93;;
30693;SDS011;17446;48.022;-1.740;2022-07-10T15:22:57;1.33;;;0.75;;
30693;SDS011;17446;48.022;-1.740;2022-07-10T15:25:23;2.22;;;1.00;;